createdAt,value
2023-04-24T00:01:52.767Z,12.74
2023-04-24T00:04:19.935Z,12.67
2023-04-24T00:06:50.394Z,12.72
2023-04-24T00:09:17.409Z,12.49
2023-04-24T00:11:44.325Z,12.56
2023-04-24T00:14:11.249Z,12.58
2023-04-24T00:16:38.230Z,12.48
2023-04-24T00:19:06.836Z,12.47
2023-04-24T00:21:33.775Z,12.57
2023-04-24T00:24:00.828Z,12.58
2023-04-24T00:26:27.822Z,12.54
2023-04-24T00:28:54.777Z,12.51
2023-04-24T00:31:22.121Z,12.42
2023-04-24T00:33:49.158Z,12.55
2023-04-24T00:36:16.068Z,12.60
2023-04-24T00:38:42.996Z,12.52
2023-04-24T00:41:09.992Z,12.56
2023-04-24T00:43:37.012Z,12.39
2023-04-24T00:46:04.084Z,12.60
2023-04-24T00:48:32.607Z,12.61
2023-04-24T00:50:59.794Z,12.56
2023-04-24T00:53:26.758Z,12.53
2023-04-24T00:55:53.823Z,12.46
2023-04-24T00:58:21.135Z,12.50
2023-04-24T01:00:49.978Z,12.54
2023-04-24T01:03:17.875Z,12.44
2023-04-24T01:05:44.875Z,12.47
2023-04-24T01:08:12.589Z,12.35
2023-04-24T01:10:42.164Z,12.52
2023-04-24T01:13:09.559Z,12.37
2023-04-24T01:15:36.808Z,12.46
2023-04-24T01:18:04.695Z,12.47
2023-04-24T01:20:32.896Z,12.42
2023-04-24T01:23:00.122Z,12.46
2023-04-24T01:25:28.590Z,12.38
2023-04-24T01:28:02.034Z,12.41
2023-04-24T01:30:29.652Z,12.46
2023-04-24T01:32:59.833Z,12.42
2023-04-24T01:35:27.112Z,12.26
2023-04-24T01:37:54.162Z,12.31
2023-04-24T01:40:21.252Z,12.30
2023-04-24T01:42:48.798Z,12.37
2023-04-24T01:45:15.693Z,12.32
2023-04-24T01:47:43.124Z,12.42
2023-04-24T01:50:10.728Z,12.48
2023-04-24T01:52:40.082Z,12.47
2023-04-24T01:55:08.122Z,12.20
2023-04-24T01:57:35.071Z,12.27
2023-04-24T02:00:02.392Z,12.20
2023-04-24T02:02:30.988Z,12.13
2023-04-24T02:04:58.467Z,12.15
2023-04-24T02:07:25.538Z,12.13
2023-04-24T02:09:52.454Z,12.05
2023-04-24T02:12:19.408Z,12.19
2023-04-24T02:14:46.321Z,12.20
2023-04-24T02:17:14.282Z,12.15
2023-04-24T02:19:41.376Z,12.22
2023-04-24T02:22:15.410Z,12.16
2023-04-24T02:24:43.047Z,12.23
2023-04-24T02:27:09.976Z,12.15
2023-04-24T02:29:36.891Z,12.24
2023-04-24T02:32:04.384Z,12.10
2023-04-24T02:34:31.705Z,12.13
2023-04-24T02:37:00.353Z,12.09
2023-04-24T02:39:27.251Z,12.06
2023-04-24T02:41:54.905Z,12.04
2023-04-24T02:44:22.754Z,12.11
2023-04-24T02:46:50.056Z,12.12
2023-04-24T02:49:17.283Z,12.10
2023-04-24T02:51:44.340Z,11.99
2023-04-24T02:54:11.920Z,12.02
2023-04-24T02:56:38.889Z,12.03
2023-04-24T02:59:07.598Z,11.92
2023-04-24T03:01:34.981Z,11.84
2023-04-24T03:04:02.591Z,11.90
2023-04-24T03:06:29.903Z,11.92
2023-04-24T03:08:56.766Z,11.88
2023-04-24T03:11:23.684Z,11.73
2023-04-24T03:13:50.748Z,11.81
2023-04-24T03:16:17.686Z,11.61
2023-04-24T03:18:44.679Z,11.66
2023-04-24T03:21:12.677Z,11.66
2023-04-24T03:23:39.857Z,11.59
2023-04-24T03:26:07.851Z,11.54
2023-04-24T03:28:37.530Z,11.62
2023-04-24T03:31:05.328Z,11.39
2023-04-24T03:33:37.104Z,11.55
2023-04-24T03:36:05.956Z,11.46
2023-04-24T03:38:41.107Z,11.20
2023-04-24T03:41:23.571Z,11.10
2023-04-24T03:43:54.904Z,11.18
2023-04-24T03:46:21.912Z,10.98
2023-04-24T03:48:54.818Z,10.94
2023-04-24T03:51:28.787Z,10.90
2023-04-24T03:54:00.164Z,10.81
2023-04-24T03:56:29.730Z,10.88
2023-04-24T03:58:56.666Z,10.98
2023-04-24T04:01:24.072Z,10.95
2023-04-24T04:03:59.932Z,11.01
2023-04-24T04:06:28.371Z,10.89
2023-04-24T04:08:56.498Z,10.93
2023-04-24T04:11:24.921Z,10.80
2023-04-24T04:13:51.965Z,10.81
2023-04-24T04:16:21.634Z,10.74
2023-04-24T04:18:51.731Z,10.69
2023-04-24T04:21:18.765Z,10.76
2023-04-24T04:23:46.203Z,10.55
2023-04-24T04:26:22.071Z,10.67
2023-04-24T04:29:07.695Z,10.71
2023-04-24T04:31:37.791Z,10.69
2023-04-24T04:34:09.009Z,10.61
2023-04-24T04:36:37.725Z,10.58
2023-04-24T04:39:19.654Z,10.44
2023-04-24T04:41:57.809Z,10.45
2023-04-24T04:44:30.412Z,10.53
2023-04-24T04:46:59.486Z,10.37
2023-04-24T04:49:29.485Z,10.41
2023-04-24T04:51:56.832Z,10.33
2023-04-24T04:54:26.218Z,10.29
2023-04-24T04:56:53.329Z,10.32
2023-04-24T04:59:20.438Z,10.23
2023-04-24T05:01:49.958Z,10.34
2023-04-24T05:04:17.861Z,10.48
2023-04-24T05:06:45.176Z,10.53
2023-04-24T05:09:12.494Z,10.61
2023-04-24T05:11:50.958Z,10.71
2023-04-24T05:14:18.905Z,10.75
2023-04-24T05:16:46.314Z,10.71
2023-04-24T05:19:15.709Z,10.72
2023-04-24T05:21:42.740Z,10.71
2023-04-24T05:24:10.864Z,10.72
2023-04-24T05:27:00.108Z,10.62
2023-04-24T05:29:40.054Z,10.54
2023-04-24T05:32:07.582Z,10.56
2023-04-24T05:34:35.823Z,10.59
2023-04-24T05:37:03.969Z,10.47
2023-04-24T05:39:30.870Z,10.44
2023-04-24T05:41:59.175Z,10.57
2023-04-24T05:44:26.730Z,10.68
2023-04-24T05:46:59.379Z,10.56
2023-04-24T05:49:26.941Z,10.71
2023-04-24T05:51:54.572Z,10.75
2023-04-24T05:54:21.778Z,10.98
2023-04-24T05:56:48.885Z,10.83
2023-04-24T05:59:22.691Z,11.01
2023-04-24T06:01:50.866Z,11.00
2023-04-24T06:04:20.743Z,11.21
2023-04-24T06:06:51.713Z,11.37
2023-04-24T06:09:19.003Z,11.39
2023-04-24T06:11:45.930Z,11.44
2023-04-24T06:14:14.632Z,11.41
2023-04-24T06:17:17.290Z,11.33
2023-04-24T06:19:46.118Z,11.28
2023-04-24T06:22:13.322Z,11.22
2023-04-24T06:24:43.346Z,11.26
2023-04-24T06:27:10.517Z,11.17
2023-04-24T06:29:38.242Z,11.12
2023-04-24T06:32:05.377Z,11.02
2023-04-24T06:34:34.935Z,11.24
2023-04-24T06:37:02.395Z,11.30
2023-04-24T06:39:29.271Z,11.28
2023-04-24T06:41:56.964Z,11.46
2023-04-24T06:44:24.639Z,11.53
2023-04-24T06:46:51.595Z,11.68
2023-04-24T06:49:18.559Z,11.45
2023-04-24T06:51:45.482Z,11.44
2023-04-24T06:54:12.626Z,11.37
2023-04-24T06:56:39.680Z,11.37
2023-04-24T06:59:06.616Z,11.23
2023-04-24T07:01:33.605Z,11.25
2023-04-24T07:04:00.826Z,11.07
2023-04-24T07:06:28.368Z,10.99
2023-04-24T07:08:55.415Z,11.12
2023-04-24T07:11:23.183Z,11.06
2023-04-24T07:13:50.268Z,11.19
2023-04-24T07:16:17.355Z,11.24
2023-04-24T07:18:44.639Z,11.36
2023-04-24T07:21:12.257Z,11.47
2023-04-24T07:23:39.225Z,11.31
2023-04-24T07:26:06.317Z,11.35
2023-04-24T07:28:33.236Z,11.28
2023-04-24T07:31:00.872Z,11.48
2023-04-24T07:33:28.070Z,11.66
2023-04-24T07:35:55.260Z,11.57
2023-04-24T07:38:23.079Z,11.42
2023-04-24T07:40:50.614Z,11.43
2023-04-24T07:43:17.590Z,11.37
2023-04-24T07:45:44.980Z,11.28
2023-04-24T07:48:11.979Z,11.22
2023-04-24T07:50:42.224Z,11.14
2023-04-24T07:53:09.195Z,11.19
2023-04-24T07:55:36.172Z,11.20
2023-04-24T07:58:03.250Z,11.14
2023-04-24T08:00:30.536Z,11.18
2023-04-24T08:02:57.668Z,11.05
2023-04-24T08:05:26.621Z,11.06
2023-04-24T08:07:53.956Z,11.07
2023-04-24T08:10:22.165Z,11.16
2023-04-24T08:12:49.290Z,11.17
2023-04-24T08:15:16.247Z,11.10
2023-04-24T08:17:43.391Z,11.21
2023-04-24T08:20:16.614Z,11.28
2023-04-24T08:22:44.602Z,11.35
2023-04-24T08:25:12.146Z,11.39
2023-04-24T08:27:39.680Z,11.29
2023-04-24T08:30:08.329Z,11.34
2023-04-24T08:32:35.341Z,11.20
2023-04-24T08:35:02.381Z,11.24
2023-04-24T08:37:29.543Z,11.25
2023-04-24T08:39:56.580Z,11.22
2023-04-24T08:42:23.547Z,11.18
2023-04-24T08:44:51.202Z,11.24
2023-04-24T08:47:19.057Z,11.18
2023-04-24T08:49:46.719Z,11.25
2023-04-24T08:52:14.318Z,11.17
2023-04-24T08:54:44.454Z,11.21
2023-04-24T08:57:12.937Z,11.17
2023-04-24T08:59:40.838Z,11.36
2023-04-24T09:02:12.708Z,11.44
2023-04-24T09:04:41.864Z,11.49
2023-04-24T09:07:11.641Z,11.54
2023-04-24T09:09:40.004Z,11.39
2023-04-24T09:12:07.479Z,11.55
2023-04-24T09:14:34.543Z,11.60
2023-04-24T09:17:01.536Z,11.87
2023-04-24T09:19:28.738Z,12.04
2023-04-24T09:21:55.818Z,11.84
2023-04-24T09:24:23.724Z,11.90
2023-04-24T09:26:59.648Z,11.88
2023-04-24T09:29:26.719Z,11.68
2023-04-24T09:31:53.749Z,11.68
2023-04-24T09:34:26.398Z,11.55
2023-04-24T09:36:54.714Z,11.31
2023-04-24T09:39:21.701Z,11.36
2023-04-24T09:42:00.642Z,11.44
2023-04-24T09:44:29.355Z,11.41
2023-04-24T09:46:58.852Z,11.36
2023-04-24T09:49:27.803Z,11.45
2023-04-24T09:52:10.177Z,11.43
2023-04-24T09:54:38.336Z,11.37
2023-04-24T09:57:05.647Z,11.38
2023-04-24T09:59:33.035Z,11.45
2023-04-24T10:02:01.815Z,11.46
2023-04-24T10:04:29.957Z,11.69
2023-04-24T10:06:58.438Z,11.86
2023-04-24T10:09:27.843Z,11.83
2023-04-24T10:11:56.077Z,11.70
2023-04-24T10:14:25.356Z,11.81
2023-04-24T10:16:55.709Z,11.67
2023-04-24T10:19:26.811Z,11.33
2023-04-24T10:21:55.606Z,11.55
2023-04-24T10:24:22.780Z,11.42
2023-04-24T10:26:49.855Z,11.38
2023-04-24T10:29:19.915Z,11.45
2023-04-24T10:31:47.911Z,11.42
2023-04-24T10:34:18.727Z,11.24
2023-04-24T10:36:54.314Z,11.34
2023-04-24T10:39:27.469Z,11.13
2023-04-24T10:41:58.418Z,11.15
2023-04-24T10:44:25.831Z,11.03
2023-04-24T10:46:57.241Z,11.00
2023-04-24T10:49:35.691Z,10.98
2023-04-24T10:52:07.672Z,10.89
2023-04-24T10:54:48.326Z,10.92
2023-04-24T10:57:21.747Z,11.10
2023-04-24T11:00:13.796Z,11.09
2023-04-24T11:02:49.280Z,11.07
2023-04-24T11:05:18.634Z,10.94
2023-04-24T11:08:31.632Z,10.81
2023-04-24T11:11:04.772Z,10.89
2023-04-24T11:13:59.700Z,11.04
2023-04-24T11:16:51.234Z,11.08
2023-04-24T11:19:18.177Z,11.14
2023-04-24T11:22:04.743Z,10.86
2023-04-24T11:24:40.420Z,11.00
2023-04-24T11:27:20.591Z,11.18
2023-04-24T11:29:56.090Z,11.36
2023-04-24T11:32:35.064Z,11.28
2023-04-24T11:35:31.622Z,11.27
2023-04-24T11:40:29.953Z,11.07
2023-04-24T11:42:57.184Z,11.03
2023-04-24T11:45:34.289Z,10.93
2023-04-24T11:48:04.087Z,11.01
2023-04-24T11:50:31.472Z,10.95
2023-04-24T11:52:58.709Z,10.72
2023-04-24T11:55:28.340Z,10.66
2023-04-24T11:57:59.072Z,10.54
2023-04-24T12:00:29.730Z,10.36
2023-04-24T12:03:12.449Z,10.19
2023-04-24T12:05:40.709Z,10.12
2023-04-24T12:08:07.927Z,10.03
2023-04-24T12:10:36.120Z,10.05
2023-04-24T12:13:03.786Z,9.87
2023-04-24T12:15:31.083Z,9.71
2023-04-24T12:17:58.878Z,9.74
2023-04-24T12:20:33.814Z,9.73
2023-04-24T12:23:02.605Z,9.62
2023-04-24T12:25:32.883Z,9.60
2023-04-24T12:28:06.188Z,9.71
2023-04-24T12:30:41.075Z,9.64
2023-04-24T12:33:08.371Z,9.64
2023-04-24T12:35:36.750Z,9.63
2023-04-24T12:38:18.931Z,9.50
2023-04-24T12:40:45.970Z,9.71
2023-04-24T12:43:18.187Z,9.65
2023-04-24T12:45:46.139Z,9.42
2023-04-24T12:48:15.231Z,9.56
2023-04-24T12:50:46.074Z,9.29
2023-04-24T12:53:14.226Z,9.31
2023-04-24T12:55:41.511Z,9.35
2023-04-24T12:58:08.961Z,9.56
2023-04-24T13:00:36.044Z,9.61
2023-04-24T13:03:03.781Z,9.54
2023-04-24T13:05:31.153Z,9.44
2023-04-24T13:07:58.783Z,9.42
2023-04-24T13:10:25.832Z,9.52
2023-04-24T13:12:52.901Z,9.51
2023-04-24T13:15:19.937Z,9.73
2023-04-24T13:17:46.888Z,9.68
2023-04-24T13:20:13.913Z,9.54
2023-04-24T13:22:40.926Z,9.65
2023-04-24T13:25:08.379Z,9.54
2023-04-24T13:27:35.332Z,9.61
2023-04-24T13:30:02.354Z,9.51
2023-04-24T13:32:29.908Z,9.58
2023-04-24T13:34:58.215Z,9.69
2023-04-24T13:37:25.100Z,9.71
2023-04-24T13:39:52.564Z,9.60
2023-04-24T13:42:20.951Z,9.56
2023-04-24T13:44:47.992Z,9.48
2023-04-24T13:47:14.851Z,9.49
2023-04-24T13:49:41.957Z,9.49
2023-04-24T13:52:08.902Z,9.44
2023-04-24T13:54:35.868Z,9.71
2023-04-24T13:57:04.245Z,9.71
2023-04-24T13:59:31.218Z,9.77
2023-04-24T14:01:58.353Z,9.77
2023-04-24T14:04:25.949Z,9.64
2023-04-24T14:06:53.173Z,9.53
2023-04-24T14:09:20.048Z,9.60
2023-04-24T14:11:47.105Z,9.54
2023-04-24T14:14:14.007Z,9.44
2023-04-24T14:16:41.303Z,9.47
2023-04-24T14:19:08.278Z,9.64
2023-04-24T14:21:35.346Z,9.52
2023-04-24T14:24:02.282Z,9.47
2023-04-24T14:26:29.184Z,9.20
2023-04-24T14:29:04.115Z,9.68
2023-04-24T14:31:40.970Z,9.64
2023-04-24T14:34:07.938Z,9.60
2023-04-24T14:36:34.801Z,9.87
2023-04-24T14:39:04.475Z,9.86
2023-04-24T14:41:32.478Z,9.91
2023-04-24T14:43:59.360Z,9.99
2023-04-24T14:46:26.427Z,9.97
2023-04-24T14:48:53.527Z,9.92
2023-04-24T14:51:20.611Z,9.80
2023-04-24T14:53:48.672Z,9.75
2023-04-24T14:56:16.265Z,9.66
2023-04-24T14:58:43.293Z,9.60
2023-04-24T15:01:10.297Z,9.61
2023-04-24T15:03:37.574Z,9.41
2023-04-24T15:06:05.010Z,9.51
2023-04-24T15:08:31.863Z,9.52
2023-04-24T15:10:58.837Z,9.47
2023-04-24T15:13:25.905Z,9.59
2023-04-24T15:15:52.868Z,9.59
2023-04-24T15:18:19.815Z,9.55
2023-04-24T15:20:47.027Z,9.69
2023-04-24T15:23:13.916Z,9.74
2023-04-24T15:25:41.024Z,9.55
2023-04-24T15:28:07.961Z,9.63
2023-04-24T15:30:34.878Z,9.66
2023-04-24T15:33:02.713Z,9.60
2023-04-24T15:35:29.774Z,9.44
2023-04-24T15:37:56.925Z,9.55
2023-04-24T15:40:23.963Z,9.68
2023-04-24T15:42:51.103Z,9.85
2023-04-24T15:45:18.096Z,9.83
2023-04-24T15:47:49.489Z,9.67
2023-04-24T15:50:17.075Z,9.87
2023-04-24T15:52:45.804Z,9.97
2023-04-24T15:55:13.299Z,9.91
2023-04-24T15:57:40.849Z,9.75
2023-04-24T16:00:09.724Z,9.67
2023-04-24T16:02:40.092Z,9.52
2023-04-24T16:05:07.751Z,9.59
2023-04-24T16:07:35.366Z,9.56
2023-04-24T16:10:05.062Z,9.51
2023-04-24T16:12:32.027Z,9.72
2023-04-24T16:14:59.260Z,9.51
2023-04-24T16:17:26.365Z,9.48
2023-04-24T16:19:53.421Z,9.46
2023-04-24T16:22:20.377Z,9.70
2023-04-24T16:24:48.064Z,9.71
2023-04-24T16:27:15.931Z,9.66
2023-04-24T16:29:42.871Z,9.65
2023-04-24T16:32:10.663Z,9.50
2023-04-24T16:34:37.921Z,9.64
2023-04-24T16:37:05.555Z,9.68
2023-04-24T16:39:32.545Z,9.66
2023-04-24T16:42:00.408Z,9.72
2023-04-24T16:44:28.211Z,9.63
2023-04-24T16:46:55.304Z,9.63
2023-04-24T16:49:23.773Z,9.51
2023-04-24T16:51:51.011Z,9.58
2023-04-24T16:54:17.971Z,9.48
2023-04-24T16:56:44.983Z,9.48
2023-04-24T16:59:12.299Z,9.56
2023-04-24T17:01:39.240Z,9.58
2023-04-24T17:04:06.559Z,9.66
2023-04-24T17:06:33.583Z,9.56
2023-04-24T17:09:00.738Z,9.47
2023-04-24T17:11:29.922Z,9.69
2023-04-24T17:13:59.712Z,9.62
2023-04-24T17:16:27.455Z,9.73
2023-04-24T17:18:54.690Z,9.72
2023-04-24T17:21:21.630Z,9.60
2023-04-24T17:23:48.526Z,9.54
2023-04-24T17:26:15.547Z,9.55
2023-04-24T17:28:42.468Z,9.57
2023-04-24T17:31:09.409Z,9.50
2023-04-24T17:33:36.330Z,9.49
2023-04-24T17:36:03.237Z,9.44
2023-04-24T17:38:30.449Z,9.47
2023-04-24T17:40:58.300Z,9.46
2023-04-24T17:43:25.268Z,9.44
2023-04-24T17:45:57.963Z,9.41
2023-04-24T17:48:25.729Z,9.38
2023-04-24T17:50:53.081Z,9.13
2023-04-24T17:53:21.546Z,9.41
2023-04-24T17:55:48.614Z,9.25
2023-04-24T17:58:15.884Z,9.37
2023-04-24T18:00:43.028Z,9.40
2023-04-24T18:03:10.259Z,9.42
2023-04-24T18:05:38.913Z,9.30
2023-04-24T18:08:06.321Z,9.29
2023-04-24T18:10:37.411Z,9.41
2023-04-24T18:13:05.655Z,9.42
2023-04-24T18:15:32.696Z,9.43
2023-04-24T18:17:59.896Z,9.43
2023-04-24T18:20:27.227Z,9.35
2023-04-24T18:22:54.740Z,9.33
2023-04-24T18:25:26.653Z,9.17
2023-04-24T18:27:54.832Z,9.27
2023-04-24T18:30:23.010Z,9.07
2023-04-24T18:32:52.922Z,9.14
2023-04-24T18:35:21.223Z,9.10
2023-04-24T18:37:48.782Z,9.10
2023-04-24T18:40:16.299Z,8.99
2023-04-24T18:42:43.921Z,9.02
2023-04-24T18:45:14.734Z,8.95
2023-04-24T18:47:42.963Z,8.93
2023-04-24T18:50:11.084Z,8.95
2023-04-24T18:52:38.171Z,8.90
2023-04-24T18:55:06.871Z,9.03
2023-04-24T18:57:34.052Z,8.88
2023-04-24T19:00:01.469Z,8.94
2023-04-24T19:02:28.589Z,8.98
2023-04-24T19:04:55.715Z,8.93
2023-04-24T19:07:22.800Z,9.04
2023-04-24T19:09:49.713Z,9.03
2023-04-24T19:12:16.840Z,8.85
2023-04-24T19:14:43.779Z,8.91
2023-04-24T19:17:11.082Z,8.88
2023-04-24T19:19:38.031Z,8.85
2023-04-24T19:22:05.303Z,8.98
2023-04-24T19:24:33.601Z,8.92
2023-04-24T19:27:01.607Z,8.95
2023-04-24T19:29:28.661Z,8.79
2023-04-24T19:31:57.895Z,8.92
2023-04-24T19:34:26.050Z,8.88
2023-04-24T19:36:53.194Z,8.81
2023-04-24T19:39:20.221Z,8.86
2023-04-24T19:41:47.192Z,8.93
2023-04-24T19:44:15.538Z,8.82
2023-04-24T19:46:42.741Z,8.83
2023-04-24T19:49:09.826Z,8.92
2023-04-24T19:51:37.548Z,8.97
2023-04-24T19:54:06.215Z,8.96
2023-04-24T19:56:33.476Z,8.88
2023-04-24T19:59:01.065Z,8.86
2023-04-24T20:01:28.321Z,9.05
2023-04-24T20:03:55.405Z,9.03
2023-04-24T20:06:22.470Z,8.89
2023-04-24T20:08:49.681Z,9.04
2023-04-24T20:11:17.083Z,9.11
2023-04-24T20:13:44.092Z,9.07
2023-04-24T20:16:11.593Z,9.04
2023-04-24T20:18:38.754Z,8.99
2023-04-24T20:21:05.779Z,9.04
2023-04-24T20:23:32.735Z,9.06
2023-04-24T20:25:59.741Z,8.98
2023-04-24T20:28:27.821Z,9.07
2023-04-24T20:30:54.929Z,8.94
2023-04-24T20:33:22.340Z,8.88
2023-04-24T20:35:49.664Z,8.91
2023-04-24T20:38:18.475Z,8.80
2023-04-24T20:40:57.207Z,8.93
2023-04-24T20:43:28.890Z,8.97
2023-04-24T20:45:58.101Z,9.05
2023-04-24T20:48:26.527Z,8.87
2023-04-24T20:50:53.940Z,9.10
2023-04-24T20:53:21.525Z,8.96
2023-04-24T20:55:48.908Z,9.04
2023-04-24T20:58:18.555Z,9.04
2023-04-24T21:00:46.770Z,8.91
2023-04-24T21:03:13.814Z,8.86
2023-04-24T21:05:40.730Z,8.94
2023-04-24T21:08:07.630Z,8.76
2023-04-24T21:10:34.567Z,8.64
2023-04-24T21:13:01.552Z,8.70
2023-04-24T21:15:29.271Z,8.62
2023-04-24T21:17:56.807Z,8.58
2023-04-24T21:20:23.760Z,8.50
2023-04-24T21:22:50.666Z,8.59
2023-04-24T21:25:17.661Z,8.61
2023-04-24T21:27:44.656Z,8.53
2023-04-24T21:30:12.459Z,8.43
2023-04-24T21:32:40.478Z,8.40
2023-04-24T21:35:07.869Z,8.24
2023-04-24T21:37:35.827Z,8.14
2023-04-24T21:40:04.784Z,8.13
2023-04-24T21:42:31.817Z,8.18
2023-04-24T21:44:58.832Z,8.09
2023-04-24T21:47:25.852Z,8.17
2023-04-24T21:49:52.821Z,8.12
2023-04-24T21:52:20.087Z,8.16
2023-04-24T21:54:46.965Z,8.07
2023-04-24T21:57:14.088Z,8.15
2023-04-24T21:59:41.040Z,8.11
2023-04-24T22:02:07.965Z,8.04
2023-04-24T22:04:35.100Z,8.17
2023-04-24T22:07:02.114Z,8.05
2023-04-24T22:09:29.059Z,8.02
2023-04-24T22:11:56.033Z,7.96
2023-04-24T22:14:22.972Z,8.02
2023-04-24T22:16:50.255Z,7.92
2023-04-24T22:19:17.236Z,8.07
2023-04-24T22:21:44.281Z,8.03
2023-04-24T22:24:11.216Z,7.90
2023-04-24T22:26:38.160Z,8.08
2023-04-24T22:29:05.239Z,8.37
2023-04-24T22:31:32.382Z,8.33
2023-04-24T22:33:59.360Z,8.37
2023-04-24T22:36:27.020Z,8.43
2023-04-24T22:38:54.285Z,8.25
2023-04-24T22:41:22.020Z,8.39
2023-04-24T22:43:49.286Z,8.23
2023-04-24T22:46:17.316Z,8.25
2023-04-24T22:48:45.561Z,8.22
2023-04-24T22:51:12.508Z,8.34
2023-04-24T22:53:39.593Z,8.20
2023-04-24T22:56:07.098Z,8.25
2023-04-24T22:58:34.033Z,8.28
2023-04-24T23:01:01.470Z,8.23
2023-04-24T23:03:28.628Z,8.25
2023-04-24T23:05:55.777Z,8.13
2023-04-24T23:08:22.670Z,8.25
2023-04-24T23:10:49.676Z,8.18
2023-04-24T23:13:16.667Z,7.97
2023-04-24T23:15:43.663Z,7.89
2023-04-24T23:18:11.574Z,7.96
2023-04-24T23:20:39.007Z,7.93
2023-04-24T23:23:06.003Z,7.93
2023-04-24T23:25:33.165Z,7.94
2023-04-24T23:28:00.120Z,7.89
2023-04-24T23:30:27.250Z,7.85
2023-04-24T23:32:54.299Z,7.72
2023-04-24T23:35:21.268Z,7.55
2023-04-24T23:37:48.224Z,7.62
2023-04-24T23:40:15.273Z,7.79
2023-04-24T23:42:42.157Z,7.67
2023-04-24T23:45:10.860Z,7.76
2023-04-24T23:47:38.341Z,7.69
2023-04-24T23:50:06.045Z,7.65
2023-04-24T23:52:35.183Z,7.64
2023-04-24T23:55:04.707Z,7.68
2023-04-24T23:57:32.162Z,7.72
2023-04-24T23:59:59.104Z,7.68
